sensor_id;sensor_type;location;lat;lon;timestamp;temperature;humidity
18083;DHT22;9168;51.194;6.840;2023-03-13T00:00:00;9.30;99.90
18083;DHT22;9168;51.194;6.840;2023-03-13T00:02:31;9.40;99.90
18083;DHT22;9168;51.194;6.840;2023-03-13T00:04:57;9.40;99.90
18083;DHT22;9168;51.194;6.840;2023-03-13T00:07:24;9.40;99.90
18083;DHT22;9168;51.194;6.840;2023-03-13T00:09:51;9.40;99.90
18083;DHT22;9168;51.194;6.840;2023-03-13T00:12:19;9.40;99.90
18083;DHT22;9168;51.194;6.840;2023-03-13T00:14:46;9.40;99.90
18083;DHT22;9168;51.194;6.840;2023-03-13T00:17:13;9.40;99.90
18083;DHT22;9168;51.194;6.840;2023-03-13T00:19:40;9.40;99.90
18083;DHT22;9168;51.194;6.840;2023-03-13T00:22:07;9.40;99.90
18083;DHT22;9168;51.194;6.840;2023-03-13T00:24:34;9.40;99.90
18083;DHT22;9168;51.194;6.840;2023-03-13T00:27:01;9.40;99.90
18083;DHT22;9168;51.194;6.840;2023-03-13T00:29:32;9.50;99.90
18083;DHT22;9168;51.194;6.840;2023-03-13T00:32:00;9.40;99.90
18083;DHT22;9168;51.194;6.840;2023-03-13T00:34:27;9.40;99.90
18083;DHT22;9168;51.194;6.840;2023-03-13T00:36:54;9.40;99.90
18083;DHT22;9168;51.194;6.840;2023-03-13T00:39:21;9.40;99.90
18083;DHT22;9168;51.194;6.840;2023-03-13T00:41:48;9.40;99.90
18083;DHT22;9168;51.194;6.840;2023-03-13T00:44:15;9.40;99.90
18083;DHT22;9168;51.194;6.840;2023-03-13T00:46:43;9.40;99.90
18083;DHT22;9168;51.194;6.840;2023-03-13T00:49:10;9.40;99.90
18083;DHT22;9168;51.194;6.840;2023-03-13T00:51:37;9.40;99.90
18083;DHT22;9168;51.194;6.840;2023-03-13T00:54:04;9.40;99.90
18083;DHT22;9168;51.194;6.840;2023-03-13T00:56:31;9.40;99.90
18083;DHT22;9168;51.194;6.840;2023-03-13T00:58:58;9.40;99.90
18083;DHT22;9168;51.194;6.840;2023-03-13T01:01:28;9.40;99.90
18083;DHT22;9168;51.194;6.840;2023-03-13T01:03:58;9.40;99.90
18083;DHT22;9168;51.194;6.840;2023-03-13T01:06:27;9.40;99.90
18083;DHT22;9168;51.194;6.840;2023-03-13T01:08:54;9.40;99.90
18083;DHT22;9168;51.194;6.840;2023-03-13T01:11:24;9.50;99.90
18083;DHT22;9168;51.194;6.840;2023-03-13T01:13:53;9.50;99.90
18083;DHT22;9168;51.194;6.840;2023-03-13T01:16:20;9.50;99.90
18083;DHT22;9168;51.194;6.840;2023-03-13T01:18:50;9.40;99.90
18083;DHT22;9168;51.194;6.840;2023-03-13T01:21:20;9.40;99.90
18083;DHT22;9168;51.194;6.840;2023-03-13T01:23:48;9.40;99.90
18083;DHT22;9168;51.194;6.840;2023-03-13T01:26:16;9.50;99.90
18083;DHT22;9168;51.194;6.840;2023-03-13T01:28:42;9.40;99.90
18083;DHT22;9168;51.194;6.840;2023-03-13T01:31:11;9.40;99.90
18083;DHT22;9168;51.194;6.840;2023-03-13T01:33:38;9.40;99.90
18083;DHT22;9168;51.194;6.840;2023-03-13T01:36:05;9.40;99.90
18083;DHT22;9168;51.194;6.840;2023-03-13T01:38:35;9.40;99.90
18083;DHT22;9168;51.194;6.840;2023-03-13T01:41:02;9.40;99.90
18083;DHT22;9168;51.194;6.840;2023-03-13T01:43:30;9.40;99.90
18083;DHT22;9168;51.194;6.840;2023-03-13T01:46:07;9.50;99.90
18083;DHT22;9168;51.194;6.840;2023-03-13T01:48:42;9.50;99.90
18083;DHT22;9168;51.194;6.840;2023-03-13T01:51:12;9.50;99.90
18083;DHT22;9168;51.194;6.840;2023-03-13T01:53:44;9.50;99.90
18083;DHT22;9168;51.194;6.840;2023-03-13T01:56:16;9.60;99.90
18083;DHT22;9168;51.194;6.840;2023-03-13T01:58:44;9.60;99.90
18083;DHT22;9168;51.194;6.840;2023-03-13T02:01:12;9.70;99.90
18083;DHT22;9168;51.194;6.840;2023-03-13T02:03:40;9.70;99.90
18083;DHT22;9168;51.194;6.840;2023-03-13T02:06:08;9.90;99.90
18083;DHT22;9168;51.194;6.840;2023-03-13T02:08:37;9.90;99.90
18083;DHT22;9168;51.194;6.840;2023-03-13T02:11:14;10.00;99.90
18083;DHT22;9168;51.194;6.840;2023-03-13T02:13:42;10.10;99.90
18083;DHT22;9168;51.194;6.840;2023-03-13T02:16:10;10.10;99.90
18083;DHT22;9168;51.194;6.840;2023-03-13T02:18:37;10.10;99.90
18083;DHT22;9168;51.194;6.840;2023-03-13T02:21:09;10.10;99.90
18083;DHT22;9168;51.194;6.840;2023-03-13T02:23:41;10.10;99.90
18083;DHT22;9168;51.194;6.840;2023-03-13T02:26:12;10.20;99.90
18083;DHT22;9168;51.194;6.840;2023-03-13T02:28:39;10.30;99.90
18083;DHT22;9168;51.194;6.840;2023-03-13T02:31:07;10.20;99.90
18083;DHT22;9168;51.194;6.840;2023-03-13T02:33:37;10.30;99.90
18083;DHT22;9168;51.194;6.840;2023-03-13T02:36:06;10.30;99.90
18083;DHT22;9168;51.194;6.840;2023-03-13T02:38:52;10.30;99.90
18083;DHT22;9168;51.194;6.840;2023-03-13T02:41:22;10.30;99.90
18083;DHT22;9168;51.194;6.840;2023-03-13T02:43:50;10.30;99.90
18083;DHT22;9168;51.194;6.840;2023-03-13T02:46:18;10.20;99.90
18083;DHT22;9168;51.194;6.840;2023-03-13T02:48:47;10.20;99.90
18083;DHT22;9168;51.194;6.840;2023-03-13T02:51:19;10.20;99.90
18083;DHT22;9168;51.194;6.840;2023-03-13T02:53:49;10.30;99.90
18083;DHT22;9168;51.194;6.840;2023-03-13T02:56:19;10.30;99.90
18083;DHT22;9168;51.194;6.840;2023-03-13T02:58:48;10.30;99.90
18083;DHT22;9168;51.194;6.840;2023-03-13T03:01:14;10.20;99.90
18083;DHT22;9168;51.194;6.840;2023-03-13T03:03:41;10.20;99.90
18083;DHT22;9168;51.194;6.840;2023-03-13T03:06:08;10.20;99.90
18083;DHT22;9168;51.194;6.840;2023-03-13T03:08:35;10.30;99.90
18083;DHT22;9168;51.194;6.840;2023-03-13T03:11:06;10.30;99.90
18083;DHT22;9168;51.194;6.840;2023-03-13T03:13:33;10.20;99.90
18083;DHT22;9168;51.194;6.840;2023-03-13T03:16:06;10.20;99.90
18083;DHT22;9168;51.194;6.840;2023-03-13T03:18:33;10.20;99.90
18083;DHT22;9168;51.194;6.840;2023-03-13T03:21:00;10.20;99.90
18083;DHT22;9168;51.194;6.840;2023-03-13T03:23:29;10.20;99.90
18083;DHT22;9168;51.194;6.840;2023-03-13T03:25:56;10.20;99.90
18083;DHT22;9168;51.194;6.840;2023-03-13T03:28:23;10.20;99.90
18083;DHT22;9168;51.194;6.840;2023-03-13T03:30:50;10.20;99.90
18083;DHT22;9168;51.194;6.840;2023-03-13T03:33:20;10.20;99.90
18083;DHT22;9168;51.194;6.840;2023-03-13T03:35:47;10.30;99.90
18083;DHT22;9168;51.194;6.840;2023-03-13T03:38:14;10.30;99.90
18083;DHT22;9168;51.194;6.840;2023-03-13T03:40:41;10.30;99.90
18083;DHT22;9168;51.194;6.840;2023-03-13T03:43:08;10.30;99.90
18083;DHT22;9168;51.194;6.840;2023-03-13T03:45:35;10.40;99.90
18083;DHT22;9168;51.194;6.840;2023-03-13T03:48:02;10.40;99.90
18083;DHT22;9168;51.194;6.840;2023-03-13T03:50:30;10.40;99.90
18083;DHT22;9168;51.194;6.840;2023-03-13T03:52:57;10.40;99.90
18083;DHT22;9168;51.194;6.840;2023-03-13T03:55:24;10.40;99.90
18083;DHT22;9168;51.194;6.840;2023-03-13T03:57:50;10.50;99.90
18083;DHT22;9168;51.194;6.840;2023-03-13T04:00:17;10.50;99.90
18083;DHT22;9168;51.194;6.840;2023-03-13T04:02:44;10.50;99.90
18083;DHT22;9168;51.194;6.840;2023-03-13T04:05:11;10.60;99.90
18083;DHT22;9168;51.194;6.840;2023-03-13T04:07:39;10.60;99.90
18083;DHT22;9168;51.194;6.840;2023-03-13T04:10:07;10.60;99.90
18083;DHT22;9168;51.194;6.840;2023-03-13T04:12:34;10.60;99.90
18083;DHT22;9168;51.194;6.840;2023-03-13T04:15:01;10.60;99.90
18083;DHT22;9168;51.194;6.840;2023-03-13T04:17:28;10.60;99.90
18083;DHT22;9168;51.194;6.840;2023-03-13T04:19:55;10.60;99.90
18083;DHT22;9168;51.194;6.840;2023-03-13T04:22:22;10.60;99.90
18083;DHT22;9168;51.194;6.840;2023-03-13T04:24:50;10.50;99.90
18083;DHT22;9168;51.194;6.840;2023-03-13T04:27:17;10.50;99.90
18083;DHT22;9168;51.194;6.840;2023-03-13T04:29:44;10.50;99.90
18083;DHT22;9168;51.194;6.840;2023-03-13T04:32:11;10.60;99.90
18083;DHT22;9168;51.194;6.840;2023-03-13T04:34:38;10.70;99.90
18083;DHT22;9168;51.194;6.840;2023-03-13T04:37:05;10.60;99.90
18083;DHT22;9168;51.194;6.840;2023-03-13T04:39:32;10.60;99.90
18083;DHT22;9168;51.194;6.840;2023-03-13T04:42:00;10.70;99.90
18083;DHT22;9168;51.194;6.840;2023-03-13T04:44:27;10.70;99.90
18083;DHT22;9168;51.194;6.840;2023-03-13T04:46:54;10.80;99.90
18083;DHT22;9168;51.194;6.840;2023-03-13T04:49:20;10.80;99.90
18083;DHT22;9168;51.194;6.840;2023-03-13T04:51:47;10.80;99.90
18083;DHT22;9168;51.194;6.840;2023-03-13T04:54:14;10.90;99.90
18083;DHT22;9168;51.194;6.840;2023-03-13T04:56:41;10.80;99.90
18083;DHT22;9168;51.194;6.840;2023-03-13T04:59:10;10.80;99.90
18083;DHT22;9168;51.194;6.840;2023-03-13T05:01:37;10.90;99.90
18083;DHT22;9168;51.194;6.840;2023-03-13T05:04:05;10.90;99.90
18083;DHT22;9168;51.194;6.840;2023-03-13T05:06:32;10.90;99.90
18083;DHT22;9168;51.194;6.840;2023-03-13T05:08:59;10.90;99.90
18083;DHT22;9168;51.194;6.840;2023-03-13T05:11:26;11.00;99.90
18083;DHT22;9168;51.194;6.840;2023-03-13T05:13:53;11.10;99.90
18083;DHT22;9168;51.194;6.840;2023-03-13T05:16:21;11.30;99.90
18083;DHT22;9168;51.194;6.840;2023-03-13T05:18:48;11.40;99.90
18083;DHT22;9168;51.194;6.840;2023-03-13T05:21:15;11.40;99.90
18083;DHT22;9168;51.194;6.840;2023-03-13T05:23:42;11.50;99.90
18083;DHT22;9168;51.194;6.840;2023-03-13T05:26:09;11.70;99.90
18083;DHT22;9168;51.194;6.840;2023-03-13T05:28:36;11.80;99.90
18083;DHT22;9168;51.194;6.840;2023-03-13T05:31:03;11.80;99.90
18083;DHT22;9168;51.194;6.840;2023-03-13T05:33:31;11.90;99.90
18083;DHT22;9168;51.194;6.840;2023-03-13T05:35:58;12.10;99.90
18083;DHT22;9168;51.194;6.840;2023-03-13T05:38:25;12.10;99.90
18083;DHT22;9168;51.194;6.840;2023-03-13T05:40:52;12.10;99.90
18083;DHT22;9168;51.194;6.840;2023-03-13T05:43:19;12.10;99.90
18083;DHT22;9168;51.194;6.840;2023-03-13T05:45:45;12.20;99.90
18083;DHT22;9168;51.194;6.840;2023-03-13T05:48:12;12.10;99.90
18083;DHT22;9168;51.194;6.840;2023-03-13T05:50:40;12.10;99.90
18083;DHT22;9168;51.194;6.840;2023-03-13T05:53:07;12.20;99.90
18083;DHT22;9168;51.194;6.840;2023-03-13T05:55:34;12.30;99.90
18083;DHT22;9168;51.194;6.840;2023-03-13T05:58:01;12.30;99.90
18083;DHT22;9168;51.194;6.840;2023-03-13T06:00:28;12.40;99.90
18083;DHT22;9168;51.194;6.840;2023-03-13T06:02:55;12.40;99.90
18083;DHT22;9168;51.194;6.840;2023-03-13T06:05:21;12.40;99.90
18083;DHT22;9168;51.194;6.840;2023-03-13T06:07:50;12.40;99.90
18083;DHT22;9168;51.194;6.840;2023-03-13T06:10:17;12.40;99.90
18083;DHT22;9168;51.194;6.840;2023-03-13T06:12:44;12.40;99.90
18083;DHT22;9168;51.194;6.840;2023-03-13T06:15:11;12.40;99.90
18083;DHT22;9168;51.194;6.840;2023-03-13T06:17:37;12.40;99.90
18083;DHT22;9168;51.194;6.840;2023-03-13T06:20:05;12.40;99.90
18083;DHT22;9168;51.194;6.840;2023-03-13T06:22:32;12.40;99.90
18083;DHT22;9168;51.194;6.840;2023-03-13T06:25:00;12.50;99.90
18083;DHT22;9168;51.194;6.840;2023-03-13T06:27:27;12.40;99.90
18083;DHT22;9168;51.194;6.840;2023-03-13T06:29:54;12.50;99.90
18083;DHT22;9168;51.194;6.840;2023-03-13T06:32:21;12.60;99.90
18083;DHT22;9168;51.194;6.840;2023-03-13T06:34:48;12.60;99.90
18083;DHT22;9168;51.194;6.840;2023-03-13T06:37:15;12.70;99.90
18083;DHT22;9168;51.194;6.840;2023-03-13T06:39:42;12.70;99.90
18083;DHT22;9168;51.194;6.840;2023-03-13T06:42:10;12.70;99.90
18083;DHT22;9168;51.194;6.840;2023-03-13T06:44:37;12.70;99.90
18083;DHT22;9168;51.194;6.840;2023-03-13T06:47:04;12.70;99.90
18083;DHT22;9168;51.194;6.840;2023-03-13T06:49:31;12.80;99.90
18083;DHT22;9168;51.194;6.840;2023-03-13T06:51:58;12.70;99.90
18083;DHT22;9168;51.194;6.840;2023-03-13T06:54:25;12.80;99.90
18083;DHT22;9168;51.194;6.840;2023-03-13T06:56:52;12.90;99.90
18083;DHT22;9168;51.194;6.840;2023-03-13T06:59:20;12.90;99.90
18083;DHT22;9168;51.194;6.840;2023-03-13T07:01:47;12.90;99.90
18083;DHT22;9168;51.194;6.840;2023-03-13T07:04:14;12.90;99.90
18083;DHT22;9168;51.194;6.840;2023-03-13T07:06:41;12.90;99.90
18083;DHT22;9168;51.194;6.840;2023-03-13T07:09:08;12.90;99.90
18083;DHT22;9168;51.194;6.840;2023-03-13T07:11:36;13.00;99.90
18083;DHT22;9168;51.194;6.840;2023-03-13T07:14:02;13.00;99.90
18083;DHT22;9168;51.194;6.840;2023-03-13T07:16:31;13.00;99.90
18083;DHT22;9168;51.194;6.840;2023-03-13T07:18:57;12.90;99.90
18083;DHT22;9168;51.194;6.840;2023-03-13T07:21:24;13.00;99.90
18083;DHT22;9168;51.194;6.840;2023-03-13T07:23:51;13.10;99.90
18083;DHT22;9168;51.194;6.840;2023-03-13T07:26:18;13.10;99.90
18083;DHT22;9168;51.194;6.840;2023-03-13T07:28:45;13.00;99.90
18083;DHT22;9168;51.194;6.840;2023-03-13T07:31:13;13.00;99.90
18083;DHT22;9168;51.194;6.840;2023-03-13T07:33:42;13.00;99.90
18083;DHT22;9168;51.194;6.840;2023-03-13T07:36:10;13.00;99.90
18083;DHT22;9168;51.194;6.840;2023-03-13T07:38:37;13.10;99.90
18083;DHT22;9168;51.194;6.840;2023-03-13T07:41:04;13.10;99.90
18083;DHT22;9168;51.194;6.840;2023-03-13T07:43:31;13.10;99.90
18083;DHT22;9168;51.194;6.840;2023-03-13T07:46:00;13.10;99.90
18083;DHT22;9168;51.194;6.840;2023-03-13T07:48:29;13.20;99.90
18083;DHT22;9168;51.194;6.840;2023-03-13T07:50:58;13.20;99.90
18083;DHT22;9168;51.194;6.840;2023-03-13T07:53:26;13.20;99.90
18083;DHT22;9168;51.194;6.840;2023-03-13T07:55:54;13.30;99.90
18083;DHT22;9168;51.194;6.840;2023-03-13T07:58:21;13.30;99.90
18083;DHT22;9168;51.194;6.840;2023-03-13T08:00:49;13.30;99.90
18083;DHT22;9168;51.194;6.840;2023-03-13T08:03:16;13.30;99.90
18083;DHT22;9168;51.194;6.840;2023-03-13T08:05:43;13.20;99.90
18083;DHT22;9168;51.194;6.840;2023-03-13T08:08:11;13.20;99.90
18083;DHT22;9168;51.194;6.840;2023-03-13T08:10:38;13.20;99.90
18083;DHT22;9168;51.194;6.840;2023-03-13T08:13:05;13.30;99.90
18083;DHT22;9168;51.194;6.840;2023-03-13T08:15:32;13.20;99.90
18083;DHT22;9168;51.194;6.840;2023-03-13T08:17:59;13.20;99.90
18083;DHT22;9168;51.194;6.840;2023-03-13T08:20:25;13.20;99.90
18083;DHT22;9168;51.194;6.840;2023-03-13T08:22:54;13.20;99.90
18083;DHT22;9168;51.194;6.840;2023-03-13T08:25:23;13.20;99.90
18083;DHT22;9168;51.194;6.840;2023-03-13T08:27:50;13.30;99.90
18083;DHT22;9168;51.194;6.840;2023-03-13T08:30:17;13.30;99.90
18083;DHT22;9168;51.194;6.840;2023-03-13T08:32:44;13.30;99.90
18083;DHT22;9168;51.194;6.840;2023-03-13T08:35:11;13.30;99.90
18083;DHT22;9168;51.194;6.840;2023-03-13T08:37:38;13.30;99.90
18083;DHT22;9168;51.194;6.840;2023-03-13T08:40:08;13.30;99.90
18083;DHT22;9168;51.194;6.840;2023-03-13T08:42:46;13.40;99.90
18083;DHT22;9168;51.194;6.840;2023-03-13T08:45:14;13.40;99.90
18083;DHT22;9168;51.194;6.840;2023-03-13T08:47:41;13.40;99.90
18083;DHT22;9168;51.194;6.840;2023-03-13T08:50:09;13.50;99.90
18083;DHT22;9168;51.194;6.840;2023-03-13T08:52:36;13.50;99.90
18083;DHT22;9168;51.194;6.840;2023-03-13T08:55:04;13.50;99.90
18083;DHT22;9168;51.194;6.840;2023-03-13T08:57:31;13.50;99.90
18083;DHT22;9168;51.194;6.840;2023-03-13T08:59:59;13.60;99.90
18083;DHT22;9168;51.194;6.840;2023-03-13T09:02:26;13.60;99.90
18083;DHT22;9168;51.194;6.840;2023-03-13T09:04:53;13.60;99.90
18083;DHT22;9168;51.194;6.840;2023-03-13T09:07:20;13.50;99.90
18083;DHT22;9168;51.194;6.840;2023-03-13T09:09:47;13.50;99.90
18083;DHT22;9168;51.194;6.840;2023-03-13T09:12:13;13.60;99.90
18083;DHT22;9168;51.194;6.840;2023-03-13T09:14:40;13.50;99.90
18083;DHT22;9168;51.194;6.840;2023-03-13T09:17:09;13.50;99.90
18083;DHT22;9168;51.194;6.840;2023-03-13T09:19:35;13.50;99.90
18083;DHT22;9168;51.194;6.840;2023-03-13T09:22:03;13.60;99.90
18083;DHT22;9168;51.194;6.840;2023-03-13T09:24:30;13.60;99.90
18083;DHT22;9168;51.194;6.840;2023-03-13T09:26:57;13.50;99.90
18083;DHT22;9168;51.194;6.840;2023-03-13T09:29:27;13.60;99.90
18083;DHT22;9168;51.194;6.840;2023-03-13T09:31:54;13.60;99.90
18083;DHT22;9168;51.194;6.840;2023-03-13T09:34:22;13.60;99.90
18083;DHT22;9168;51.194;6.840;2023-03-13T09:36:49;13.70;99.90
18083;DHT22;9168;51.194;6.840;2023-03-13T09:39:16;13.70;99.90
18083;DHT22;9168;51.194;6.840;2023-03-13T09:41:49;13.70;99.90
18083;DHT22;9168;51.194;6.840;2023-03-13T09:44:23;13.80;99.90
18083;DHT22;9168;51.194;6.840;2023-03-13T09:47:00;13.70;99.90
18083;DHT22;9168;51.194;6.840;2023-03-13T09:49:33;13.70;99.90
18083;DHT22;9168;51.194;6.840;2023-03-13T09:52:15;13.70;99.90
18083;DHT22;9168;51.194;6.840;2023-03-13T09:54:47;13.80;99.90
18083;DHT22;9168;51.194;6.840;2023-03-13T09:57:19;13.80;99.90
18083;DHT22;9168;51.194;6.840;2023-03-13T09:59:54;13.90;99.90
18083;DHT22;9168;51.194;6.840;2023-03-13T10:02:28;13.90;99.90
18083;DHT22;9168;51.194;6.840;2023-03-13T10:05:03;14.00;99.90
18083;DHT22;9168;51.194;6.840;2023-03-13T10:07:32;14.20;99.90
18083;DHT22;9168;51.194;6.840;2023-03-13T10:10:05;14.20;99.90
18083;DHT22;9168;51.194;6.840;2023-03-13T10:12:39;14.30;99.90
18083;DHT22;9168;51.194;6.840;2023-03-13T10:15:28;14.40;99.90
18083;DHT22;9168;51.194;6.840;2023-03-13T10:17:58;14.50;99.90
18083;DHT22;9168;51.194;6.840;2023-03-13T10:20:33;14.60;99.90
18083;DHT22;9168;51.194;6.840;2023-03-13T10:23:04;14.70;99.90
18083;DHT22;9168;51.194;6.840;2023-03-13T10:25:33;14.70;99.90
18083;DHT22;9168;51.194;6.840;2023-03-13T10:28:01;14.70;99.90
18083;DHT22;9168;51.194;6.840;2023-03-13T10:30:30;14.70;99.90
18083;DHT22;9168;51.194;6.840;2023-03-13T10:32:58;14.70;99.90
18083;DHT22;9168;51.194;6.840;2023-03-13T10:35:33;14.80;99.90
18083;DHT22;9168;51.194;6.840;2023-03-13T10:38:04;14.80;99.90
18083;DHT22;9168;51.194;6.840;2023-03-13T10:40:31;14.80;99.90
18083;DHT22;9168;51.194;6.840;2023-03-13T10:43:03;14.80;99.90
18083;DHT22;9168;51.194;6.840;2023-03-13T10:45:33;14.80;99.90
18083;DHT22;9168;51.194;6.840;2023-03-13T10:48:03;14.80;99.90
18083;DHT22;9168;51.194;6.840;2023-03-13T10:50:41;14.90;99.90
18083;DHT22;9168;51.194;6.840;2023-03-13T10:53:31;14.90;99.90
18083;DHT22;9168;51.194;6.840;2023-03-13T10:56:03;14.90;99.90
18083;DHT22;9168;51.194;6.840;2023-03-13T10:58:33;14.90;99.90
18083;DHT22;9168;51.194;6.840;2023-03-13T11:01:16;14.90;99.90
18083;DHT22;9168;51.194;6.840;2023-03-13T11:03:44;15.00;99.90
18083;DHT22;9168;51.194;6.840;2023-03-13T11:06:33;15.10;99.90
18083;DHT22;9168;51.194;6.840;2023-03-13T11:09:10;15.10;99.90
18083;DHT22;9168;51.194;6.840;2023-03-13T11:11:46;15.20;99.90
18083;DHT22;9168;51.194;6.840;2023-03-13T11:14:15;15.20;99.90
18083;DHT22;9168;51.194;6.840;2023-03-13T11:16:46;15.20;99.90
18083;DHT22;9168;51.194;6.840;2023-03-13T11:19:44;15.20;99.90
18083;DHT22;9168;51.194;6.840;2023-03-13T11:22:31;15.20;99.90
18083;DHT22;9168;51.194;6.840;2023-03-13T11:25:07;15.20;99.90
18083;DHT22;9168;51.194;6.840;2023-03-13T11:27:43;15.20;99.90
18083;DHT22;9168;51.194;6.840;2023-03-13T11:30:31;15.40;99.90
18083;DHT22;9168;51.194;6.840;2023-03-13T11:33:14;15.80;99.90
18083;DHT22;9168;51.194;6.840;2023-03-13T11:35:46;15.90;99.90
18083;DHT22;9168;51.194;6.840;2023-03-13T11:38:18;16.00;99.90
18083;DHT22;9168;51.194;6.840;2023-03-13T11:40:55;16.10;99.90
18083;DHT22;9168;51.194;6.840;2023-03-13T11:43:38;16.00;99.90
18083;DHT22;9168;51.194;6.840;2023-03-13T11:46:24;15.90;99.90
18083;DHT22;9168;51.194;6.840;2023-03-13T11:49:16;15.80;99.90
18083;DHT22;9168;51.194;6.840;2023-03-13T11:51:57;16.40;99.90
18083;DHT22;9168;51.194;6.840;2023-03-13T11:54:42;17.20;99.90
18083;DHT22;9168;51.194;6.840;2023-03-13T11:57:13;18.10;99.90
18083;DHT22;9168;51.194;6.840;2023-03-13T11:59:46;18.10;99.90
18083;DHT22;9168;51.194;6.840;2023-03-13T12:02:22;17.90;99.90
18083;DHT22;9168;51.194;6.840;2023-03-13T12:04:54;17.80;99.90
18083;DHT22;9168;51.194;6.840;2023-03-13T12:07:26;17.60;99.90
18083;DHT22;9168;51.194;6.840;2023-03-13T12:10:00;17.70;99.90
18083;DHT22;9168;51.194;6.840;2023-03-13T12:12:36;17.50;99.90
18083;DHT22;9168;51.194;6.840;2023-03-13T12:15:16;17.20;99.90
18083;DHT22;9168;51.194;6.840;2023-03-13T12:17:48;17.10;99.90
18083;DHT22;9168;51.194;6.840;2023-03-13T12:20:21;17.00;99.90
18083;DHT22;9168;51.194;6.840;2023-03-13T12:22:56;17.40;99.90
18083;DHT22;9168;51.194;6.840;2023-03-13T12:25:27;17.60;99.90
18083;DHT22;9168;51.194;6.840;2023-03-13T12:28:03;17.60;99.90
18083;DHT22;9168;51.194;6.840;2023-03-13T12:30:34;17.70;99.90
18083;DHT22;9168;51.194;6.840;2023-03-13T12:33:14;17.50;99.90
18083;DHT22;9168;51.194;6.840;2023-03-13T12:35:45;17.30;99.90
18083;DHT22;9168;51.194;6.840;2023-03-13T12:38:18;17.10;99.90
18083;DHT22;9168;51.194;6.840;2023-03-13T12:40:51;16.80;99.90
18083;DHT22;9168;51.194;6.840;2023-03-13T12:43:21;16.60;99.90
18083;DHT22;9168;51.194;6.840;2023-03-13T12:46:03;16.40;99.90
18083;DHT22;9168;51.194;6.840;2023-03-13T12:48:44;16.40;99.90
18083;DHT22;9168;51.194;6.840;2023-03-13T12:51:29;16.50;99.90
18083;DHT22;9168;51.194;6.840;2023-03-13T12:54:15;16.70;99.90
18083;DHT22;9168;51.194;6.840;2023-03-13T12:57:05;16.80;99.90
18083;DHT22;9168;51.194;6.840;2023-03-13T12:59:38;16.70;99.90
18083;DHT22;9168;51.194;6.840;2023-03-13T13:02:14;16.50;99.90
18083;DHT22;9168;51.194;6.840;2023-03-13T13:04:44;16.50;99.90
18083;DHT22;9168;51.194;6.840;2023-03-13T13:07:23;16.40;99.90
18083;DHT22;9168;51.194;6.840;2023-03-13T13:10:01;16.40;99.90
18083;DHT22;9168;51.194;6.840;2023-03-13T13:12:30;16.50;99.90
18083;DHT22;9168;51.194;6.840;2023-03-13T13:15:08;16.50;99.90
18083;DHT22;9168;51.194;6.840;2023-03-13T13:18:12;16.60;99.90
18083;DHT22;9168;51.194;6.840;2023-03-13T13:20:47;16.50;99.90
18083;DHT22;9168;51.194;6.840;2023-03-13T13:23:29;16.40;99.90
18083;DHT22;9168;51.194;6.840;2023-03-13T13:32:37;16.30;99.90
18083;DHT22;9168;51.194;6.840;2023-03-13T13:35:25;16.40;99.90
18083;DHT22;9168;51.194;6.840;2023-03-13T13:37:54;16.60;99.90
18083;DHT22;9168;51.194;6.840;2023-03-13T13:40:57;16.60;99.90
18083;DHT22;9168;51.194;6.840;2023-03-13T13:43:25;16.70;99.90
18083;DHT22;9168;51.194;6.840;2023-03-13T13:46:00;16.80;99.90
18083;DHT22;9168;51.194;6.840;2023-03-13T13:48:29;16.80;99.90
18083;DHT22;9168;51.194;6.840;2023-03-13T13:51:23;16.80;99.90
18083;DHT22;9168;51.194;6.840;2023-03-13T13:53:52;16.70;99.90
18083;DHT22;9168;51.194;6.840;2023-03-13T13:56:40;16.60;99.90
18083;DHT22;9168;51.194;6.840;2023-03-13T13:59:26;16.50;99.90
18083;DHT22;9168;51.194;6.840;2023-03-13T14:02:31;16.40;99.90
18083;DHT22;9168;51.194;6.840;2023-03-13T14:05:06;16.30;99.90
18083;DHT22;9168;51.194;6.840;2023-03-13T14:07:50;16.20;99.90
18083;DHT22;9168;51.194;6.840;2023-03-13T14:10:28;16.20;99.90
18083;DHT22;9168;51.194;6.840;2023-03-13T14:12:58;16.30;99.90
18083;DHT22;9168;51.194;6.840;2023-03-13T14:15:27;16.30;99.90
18083;DHT22;9168;51.194;6.840;2023-03-13T14:17:56;16.30;99.90
18083;DHT22;9168;51.194;6.840;2023-03-13T14:20:29;16.40;99.90
18083;DHT22;9168;51.194;6.840;2023-03-13T14:22:57;16.40;99.90
18083;DHT22;9168;51.194;6.840;2023-03-13T14:25:25;16.40;99.90
18083;DHT22;9168;51.194;6.840;2023-03-13T14:27:54;16.40;99.90
18083;DHT22;9168;51.194;6.840;2023-03-13T14:30:22;16.30;99.90
18083;DHT22;9168;51.194;6.840;2023-03-13T14:32:50;16.40;99.90
18083;DHT22;9168;51.194;6.840;2023-03-13T14:35:19;16.50;99.90
18083;DHT22;9168;51.194;6.840;2023-03-13T14:37:50;16.50;99.90
18083;DHT22;9168;51.194;6.840;2023-03-13T14:40:24;16.50;99.90
18083;DHT22;9168;51.194;6.840;2023-03-13T14:42:53;16.40;99.90
18083;DHT22;9168;51.194;6.840;2023-03-13T14:45:24;16.20;99.90
18083;DHT22;9168;51.194;6.840;2023-03-13T14:47:54;16.10;99.90
18083;DHT22;9168;51.194;6.840;2023-03-13T14:50:23;16.10;99.90
18083;DHT22;9168;51.194;6.840;2023-03-13T14:52:54;16.00;99.90
18083;DHT22;9168;51.194;6.840;2023-03-13T14:55:31;16.00;99.90
18083;DHT22;9168;51.194;6.840;2023-03-13T14:58:01;15.90;99.90
18083;DHT22;9168;51.194;6.840;2023-03-13T15:00:36;15.90;99.90
18083;DHT22;9168;51.194;6.840;2023-03-13T15:03:26;15.90;99.90
18083;DHT22;9168;51.194;6.840;2023-03-13T15:06:14;15.90;99.90
18083;DHT22;9168;51.194;6.840;2023-03-13T15:08:45;15.90;99.90
18083;DHT22;9168;51.194;6.840;2023-03-13T15:11:26;15.80;99.90
18083;DHT22;9168;51.194;6.840;2023-03-13T15:13:53;15.80;99.90
18083;DHT22;9168;51.194;6.840;2023-03-13T15:16:21;15.80;99.90
18083;DHT22;9168;51.194;6.840;2023-03-13T15:18:49;15.80;99.90
18083;DHT22;9168;51.194;6.840;2023-03-13T15:21:25;15.70;99.90
18083;DHT22;9168;51.194;6.840;2023-03-13T15:23:56;15.70;99.90
18083;DHT22;9168;51.194;6.840;2023-03-13T15:26:24;15.60;99.90
18083;DHT22;9168;51.194;6.840;2023-03-13T15:28:51;15.60;99.90
18083;DHT22;9168;51.194;6.840;2023-03-13T15:31:20;15.60;99.90
18083;DHT22;9168;51.194;6.840;2023-03-13T15:33:51;15.60;99.90
18083;DHT22;9168;51.194;6.840;2023-03-13T15:36:20;15.60;99.90
18083;DHT22;9168;51.194;6.840;2023-03-13T15:38:47;15.60;99.90
18083;DHT22;9168;51.194;6.840;2023-03-13T15:41:17;15.60;99.90
18083;DHT22;9168;51.194;6.840;2023-03-13T15:43:44;15.50;99.90
18083;DHT22;9168;51.194;6.840;2023-03-13T15:46:13;15.40;99.90
18083;DHT22;9168;51.194;6.840;2023-03-13T15:48:40;15.50;99.90
18083;DHT22;9168;51.194;6.840;2023-03-13T15:51:10;15.40;99.90
18083;DHT22;9168;51.194;6.840;2023-03-13T15:53:39;15.40;99.90
18083;DHT22;9168;51.194;6.840;2023-03-13T15:56:13;15.30;99.90
18083;DHT22;9168;51.194;6.840;2023-03-13T15:58:42;15.30;99.90
18083;DHT22;9168;51.194;6.840;2023-03-13T16:01:10;15.30;99.90
18083;DHT22;9168;51.194;6.840;2023-03-13T16:03:37;15.30;99.90
18083;DHT22;9168;51.194;6.840;2023-03-13T16:06:12;15.40;99.90
18083;DHT22;9168;51.194;6.840;2023-03-13T16:08:40;15.40;99.90
18083;DHT22;9168;51.194;6.840;2023-03-13T16:11:08;15.40;99.90
18083;DHT22;9168;51.194;6.840;2023-03-13T16:13:35;15.30;99.90